createdAt,value
2018-06-01T00:02:10.097Z,21.40
2018-06-01T00:07:01.642Z,21.40
2018-06-01T00:11:53.152Z,21.50
2018-06-01T00:16:44.678Z,21.70
2018-06-01T00:21:36.205Z,21.70
2018-06-01T00:26:27.732Z,21.70
2018-06-01T00:31:19.245Z,21.60
2018-06-01T00:36:10.780Z,21.60
2018-06-01T00:41:02.305Z,21.50
2018-06-01T00:45:54.585Z,21.60
2018-06-01T00:50:46.123Z,21.50
2018-06-01T00:55:37.644Z,21.60
2018-06-01T01:00:29.173Z,21.70
2018-06-01T01:05:20.727Z,21.60
2018-06-01T01:10:12.260Z,21.60
2018-06-01T01:15:03.810Z,21.60
2018-06-01T01:19:55.336Z,21.50
2018-06-01T01:24:46.875Z,21.60
2018-06-01T01:29:38.438Z,21.60
2018-06-01T01:34:29.954Z,21.50
2018-06-01T01:39:21.477Z,21.60
2018-06-01T01:44:12.979Z,21.60
2018-06-01T01:49:04.488Z,21.50
2018-06-01T01:53:56.735Z,21.30
2018-06-01T01:58:48.263Z,21.30
2018-06-01T02:03:39.764Z,21.30
2018-06-01T02:08:32.040Z,21.10
2018-06-01T02:13:23.604Z,21.00
2018-06-01T02:18:15.816Z,21.10
2018-06-01T02:23:07.348Z,21.00
2018-06-01T02:27:58.872Z,21.10
2018-06-01T02:32:50.414Z,21.00
2018-06-01T02:37:41.929Z,21.10
2018-06-01T02:42:33.470Z,21.10
2018-06-01T02:47:24.985Z,21.00
2018-06-01T02:52:16.505Z,20.90
2018-06-01T02:57:08.001Z,20.80
2018-06-01T03:01:59.542Z,20.80
2018-06-01T03:07:17.208Z,20.80
2018-06-01T03:12:09.457Z,20.90
2018-06-01T03:17:01.713Z,20.90
2018-06-01T03:21:53.973Z,20.90
2018-06-01T03:26:45.522Z,20.80
2018-06-01T03:31:37.019Z,20.70
2018-06-01T03:36:29.282Z,20.30
2018-06-01T03:41:21.542Z,20.20
2018-06-01T03:46:13.028Z,20.10
2018-06-01T03:51:05.543Z,19.20
2018-06-01T03:55:57.715Z,18.80
2018-06-01T04:00:49.584Z,18.60
2018-06-01T04:05:41.116Z,18.50
2018-06-01T04:10:32.606Z,18.60
2018-06-01T04:15:24.116Z,18.70
2018-06-01T04:20:17.267Z,18.60
2018-06-01T04:25:08.777Z,18.50
2018-06-01T04:30:00.266Z,18.50
2018-06-01T04:34:52.487Z,18.60
2018-06-01T04:39:43.989Z,18.50
2018-06-01T04:44:35.511Z,18.70
2018-06-01T04:49:27.020Z,18.80
2018-06-01T04:54:18.524Z,18.90
2018-06-01T04:59:11.493Z,18.90
2018-06-01T05:04:04.742Z,19.10
2018-06-01T05:08:56.283Z,19.00
2018-06-01T05:13:48.642Z,19.10
2018-06-01T05:18:40.162Z,19.10
2018-06-01T05:23:31.660Z,19.00
2018-06-01T05:28:23.142Z,19.10
2018-06-01T05:33:14.633Z,19.10
2018-06-01T05:38:06.155Z,19.20
2018-06-01T05:42:57.687Z,19.30
2018-06-01T05:47:49.219Z,19.50
2018-06-01T05:52:40.725Z,19.70
2018-06-01T05:57:32.220Z,19.80
2018-06-01T06:02:23.746Z,19.90
2018-06-01T06:07:15.274Z,20.00
2018-06-01T06:12:06.764Z,20.10
2018-06-01T06:16:59.019Z,20.30
2018-06-01T06:21:51.289Z,20.30
2018-06-01T06:26:42.814Z,20.20
2018-06-01T06:31:35.150Z,20.40
2018-06-01T06:36:26.704Z,20.40
2018-06-01T06:41:19.020Z,20.50
2018-06-01T06:46:10.556Z,20.40
2018-06-01T06:51:02.087Z,20.60
2018-06-01T06:55:53.621Z,21.00
2018-06-01T07:00:45.899Z,20.90
2018-06-01T07:05:38.154Z,21.10
2018-06-01T07:10:30.376Z,21.60
2018-06-01T07:15:21.907Z,21.50
2018-06-01T07:20:14.180Z,22.40
2018-06-01T07:25:06.432Z,24.00
2018-06-01T07:29:58.755Z,25.10
2018-06-01T07:34:50.254Z,25.00
2018-06-01T07:39:42.268Z,27.00
2018-06-01T07:44:34.510Z,26.70
2018-06-01T07:49:26.056Z,26.60
2018-06-01T07:54:18.307Z,26.00
2018-06-01T07:59:10.572Z,26.30
2018-06-01T08:04:02.817Z,26.20
2018-06-01T08:08:55.093Z,26.30
2018-06-01T08:13:46.583Z,26.20
2018-06-01T08:18:38.133Z,26.10
2018-06-01T08:23:30.406Z,25.90
2018-06-01T08:28:21.929Z,25.90
2018-06-01T08:33:13.435Z,25.70
2018-06-01T08:38:04.950Z,25.20
2018-06-01T08:42:56.449Z,25.00
2018-06-01T08:47:47.953Z,24.80
2018-06-01T08:52:40.253Z,24.20
2018-06-01T08:57:31.792Z,24.20
2018-06-01T09:02:23.337Z,23.60
2018-06-01T09:07:14.869Z,23.50
2018-06-01T09:12:06.400Z,23.30
2018-06-01T09:16:57.936Z,23.00
2018-06-01T09:21:49.464Z,22.80
2018-06-01T09:26:40.978Z,22.60
2018-06-01T09:31:32.470Z,22.40
2018-06-01T09:36:24.710Z,21.90
2018-06-01T09:41:16.206Z,21.80
2018-06-01T09:46:07.708Z,21.60
2018-06-01T09:50:59.232Z,21.50
2018-06-01T09:55:51.490Z,21.60
2018-06-01T10:00:49.227Z,21.50
2018-06-01T10:05:41.513Z,21.60
2018-06-01T10:10:35.701Z,21.90
2018-06-01T10:15:27.993Z,21.90
2018-06-01T10:20:19.501Z,21.90
2018-06-01T10:25:11.763Z,21.40
2018-06-01T10:30:03.332Z,21.30
2018-06-01T10:34:55.655Z,21.00
2018-06-01T10:39:47.163Z,20.90
2018-06-01T10:44:39.421Z,20.90
2018-06-01T10:49:31.722Z,20.70
2018-06-01T10:54:23.242Z,20.60
2018-06-01T10:59:14.771Z,20.00
2018-06-01T11:04:06.268Z,19.60
2018-06-01T11:08:58.565Z,19.60
2018-06-01T11:13:50.120Z,19.60
2018-06-01T11:18:41.607Z,19.80
2018-06-01T11:23:33.113Z,19.90
2018-06-01T11:28:25.367Z,19.60
2018-06-01T11:33:16.886Z,19.50
2018-06-01T11:38:09.194Z,19.50
2018-06-01T11:43:00.682Z,19.50
2018-06-01T11:47:52.185Z,19.60
2018-06-01T11:52:43.727Z,19.70
2018-06-01T11:57:35.258Z,19.40
2018-06-01T12:02:26.784Z,19.30
2018-06-01T12:07:18.304Z,19.10
2018-06-01T12:12:09.848Z,19.50
2018-06-01T12:17:01.353Z,20.00
2018-06-01T12:21:52.867Z,20.20
2018-06-01T12:26:45.125Z,20.50
2018-06-01T12:31:37.406Z,20.80
2018-06-01T12:36:28.897Z,20.70
2018-06-01T12:41:21.155Z,20.60
2018-06-01T12:46:13.405Z,20.50
2018-06-01T12:51:04.969Z,20.40
2018-06-01T12:55:57.372Z,20.30
2018-06-01T13:00:48.888Z,20.40
2018-06-01T13:05:40.471Z,20.60
2018-06-01T13:10:32.729Z,20.40
2018-06-01T13:15:25.019Z,20.50
2018-06-01T13:20:16.549Z,20.50
2018-06-01T13:25:08.058Z,20.50
2018-06-01T13:29:59.626Z,20.30
2018-06-01T13:34:51.150Z,20.10
2018-06-01T13:39:42.655Z,19.80
2018-06-01T13:44:34.159Z,19.80
2018-06-01T13:49:26.447Z,19.90
2018-06-01T13:54:17.972Z,19.80
2018-06-01T13:59:09.479Z,19.90
2018-06-01T14:04:01.738Z,19.80
2018-06-01T14:08:53.977Z,19.70
2018-06-01T14:13:45.479Z,19.70
2018-06-01T14:18:37.171Z,19.70
2018-06-01T14:23:29.452Z,19.50
2018-06-01T14:28:20.999Z,19.50
2018-06-01T14:33:12.541Z,19.50
2018-06-01T14:38:04.067Z,19.60
2018-06-01T14:42:55.549Z,19.50
2018-06-01T14:47:47.817Z,19.40
2018-06-01T14:52:40.080Z,19.40
2018-06-01T14:57:31.699Z,19.30
2018-06-01T15:02:23.940Z,19.20
2018-06-01T15:07:16.189Z,19.10
2018-06-01T15:12:08.451Z,19.20
2018-06-01T15:17:00.697Z,19.20
2018-06-01T15:21:52.939Z,19.30
2018-06-01T15:26:45.223Z,19.10
2018-06-01T15:31:36.758Z,19.00
2018-06-01T15:36:28.351Z,19.00
2018-06-01T15:41:19.879Z,18.80
2018-06-01T15:46:11.519Z,18.60
2018-06-01T15:51:03.770Z,18.70
2018-06-01T15:55:55.296Z,18.60
2018-06-01T16:00:46.826Z,18.60
2018-06-01T16:05:38.341Z,18.40
2018-06-01T16:10:29.810Z,18.30
2018-06-01T16:15:21.367Z,18.20
2018-06-01T16:20:13.623Z,18.10
2018-06-01T16:25:05.105Z,18.00
2018-06-01T16:29:56.583Z,18.30
2018-06-01T16:34:48.873Z,18.20
2018-06-01T16:39:40.413Z,18.20
2018-06-01T16:44:31.900Z,18.30
2018-06-01T16:49:24.160Z,18.30
2018-06-01T16:54:15.673Z,18.20
2018-06-01T16:59:07.944Z,18.30
2018-06-01T17:04:00.218Z,18.30
2018-06-01T17:08:51.724Z,18.20
2018-06-01T17:13:43.964Z,18.20
2018-06-01T17:18:36.222Z,18.20
2018-06-01T17:23:28.526Z,18.10
2018-06-01T17:28:20.035Z,18.10
2018-06-01T17:33:11.599Z,18.10
2018-06-01T17:38:03.175Z,18.10
2018-06-01T17:42:55.497Z,18.10
2018-06-01T17:47:46.998Z,18.10
2018-06-01T17:52:38.499Z,18.20
2018-06-01T17:57:30.756Z,18.30
2018-06-01T18:02:23.027Z,18.40
2018-06-01T18:07:14.526Z,18.30
2018-06-01T18:12:06.758Z,18.30
2018-06-01T18:16:58.315Z,18.30
2018-06-01T18:21:50.565Z,18.50
2018-06-01T18:26:42.830Z,18.30
2018-06-01T18:31:35.061Z,18.20
2018-06-01T18:36:26.588Z,18.20
2018-06-01T18:41:18.092Z,18.20
2018-06-01T18:46:09.606Z,18.40
2018-06-01T18:51:01.157Z,18.40
2018-06-01T18:55:52.672Z,18.30
2018-06-01T19:00:44.193Z,18.20
2018-06-01T19:05:35.738Z,18.10
2018-06-01T19:10:27.257Z,18.10
2018-06-01T19:15:18.764Z,18.10
2018-06-01T19:20:10.283Z,18.10
2018-06-01T19:25:01.797Z,18.10
2018-06-01T19:29:53.326Z,18.00
2018-06-01T19:34:44.823Z,18.00
2018-06-01T19:39:37.186Z,18.00
2018-06-01T19:44:28.725Z,18.00
2018-06-01T19:49:20.259Z,18.10
2018-06-01T19:54:11.867Z,18.00
2018-06-01T19:59:04.978Z,18.00
2018-06-01T20:03:56.503Z,17.90
2018-06-01T20:08:48.041Z,18.00
2018-06-01T20:13:39.567Z,17.90
2018-06-01T20:18:31.083Z,17.80
2018-06-01T20:23:23.345Z,17.90
2018-06-01T20:28:14.966Z,17.90
2018-06-01T20:33:07.236Z,18.00
2018-06-01T20:37:58.740Z,18.00
2018-06-01T20:42:50.253Z,18.00
2018-06-01T20:47:41.783Z,17.90
2018-06-01T20:52:33.296Z,17.90
2018-06-01T20:57:24.833Z,18.10
2018-06-01T21:02:16.374Z,18.10
2018-06-01T21:07:07.881Z,18.10
2018-06-01T21:11:59.414Z,18.00
2018-06-01T21:16:50.936Z,18.10
2018-06-01T21:21:43.250Z,18.00
2018-06-01T21:26:34.873Z,17.90
2018-06-01T21:31:26.397Z,18.10
2018-06-01T21:36:17.905Z,17.90
2018-06-01T21:41:09.406Z,17.90
2018-06-01T21:46:01.658Z,18.10
2018-06-01T21:50:53.930Z,18.10
2018-06-01T21:55:45.503Z,18.10
2018-06-01T22:00:37.013Z,18.20
2018-06-01T22:05:28.515Z,18.20
2018-06-01T22:10:20.774Z,18.10
2018-06-01T22:15:13.024Z,18.10
2018-06-01T22:20:05.302Z,18.20
2018-06-01T22:24:56.772Z,18.20
2018-06-01T22:29:48.319Z,18.00
2018-06-01T22:34:40.586Z,18.10
2018-06-01T22:39:32.903Z,18.10
2018-06-01T22:44:24.446Z,18.00
2018-06-01T22:49:15.969Z,18.20
2018-06-01T22:54:07.479Z,18.10
2018-06-01T22:58:58.977Z,18.10
2018-06-01T23:03:51.223Z,18.20
2018-06-01T23:08:43.448Z,18.10
2018-06-01T23:13:34.971Z,18.10
2018-06-01T23:18:27.514Z,18.10
2018-06-01T23:23:19.022Z,18.00
2018-06-01T23:28:10.558Z,18.00
2018-06-01T23:33:02.074Z,18.00
2018-06-01T23:37:54.329Z,18.00
2018-06-01T23:42:46.561Z,18.10
2018-06-01T23:47:38.836Z,18.00
2018-06-01T23:52:31.052Z,18.00
2018-06-01T23:57:22.560Z,18.00
